Time;durP1;ratioP1;P1;durP2;ratioP2;P2;SDS_P1;SDS_P2;PMS_P1;PMS_P2;Temp;Humidity;BMP_temperature;BMP_pressure;BME280_temperature;BME280_humidity;BME280_pressure;Samples;Min_cycle;Max_cycle;Signal;HPM_P1;HPM_P2
2023/05/21 00:00:47;;;;;;;7.37;4.00;;;14.80;99.90;;;;;;5113962;28;20368;-70
2023/05/21 00:03:13;;;;;;;9.87;3.73;;;14.70;99.90;;;;;;5114279;28;20277;-69
2023/05/21 00:05:46;;;;;;;6.33;3.60;;;14.70;99.90;;;;;;5095415;28;20372;-70
2023/05/21 00:08:12;;;;;;;5.23;3.30;;;14.70;99.90;;;;;;5114150;28;20093;-70
2023/05/21 00:10:38;;;;;;;7.13;3.93;;;14.70;99.90;;;;;;5114147;28;20285;-70
2023/05/21 00:13:04;;;;;;;7.73;3.80;;;14.70;99.90;;;;;;5114117;28;20305;-70
2023/05/21 00:15:29;;;;;;;8.10;3.90;;;14.70;99.90;;;;;;5114068;28;20109;-70
2023/05/21 00:17:55;;;;;;;7.23;3.63;;;14.70;99.90;;;;;;5113743;28;20396;-70
2023/05/21 00:20:22;;;;;;;5.63;3.57;;;14.70;99.90;;;;;;5095858;28;20051;-70
2023/05/21 00:22:47;;;;;;;7.07;3.43;;;14.60;99.90;;;;;;5095698;28;20044;-71
2023/05/21 00:25:13;;;;;;;7.67;3.37;;;14.60;99.90;;;;;;5114007;28;20331;-70
2023/05/21 00:27:39;;;;;;;7.07;4.10;;;14.60;99.90;;;;;;5095867;28;20503;-70
2023/05/21 00:30:06;;;;;;;7.77;3.50;;;14.60;99.90;;;;;;5113525;28;20043;-70
2023/05/21 00:32:31;;;;;;;6.83;3.60;;;14.60;99.90;;;;;;5113716;28;20044;-70
2023/05/21 00:34:57;;;;;;;6.40;3.93;;;14.60;99.90;;;;;;5095351;28;20372;-70
2023/05/21 00:37:23;;;;;;;7.17;3.23;;;14.60;99.90;;;;;;5113857;28;20043;-70
2023/05/21 00:39:49;;;;;;;5.97;3.43;;;14.60;99.90;;;;;;5113480;28;20192;-70
2023/05/21 00:42:16;;;;;;;7.63;4.03;;;14.60;99.90;;;;;;5113333;28;20285;-70
2023/05/21 00:44:44;;;;;;;8.13;3.60;;;14.60;99.90;;;;;;5113610;28;20281;-70
2023/05/21 00:47:17;;;;;;;6.13;3.73;;;14.60;99.90;;;;;;5113065;28;20347;-70
2023/05/21 00:49:42;;;;;;;9.03;3.73;;;14.60;99.90;;;;;;5113714;28;20281;-70
2023/05/21 00:52:08;;;;;;;8.57;3.87;;;14.60;99.90;;;;;;5113206;28;20666;-70
2023/05/21 00:54:34;;;;;;;7.13;3.60;;;14.60;99.90;;;;;;5095504;28;20129;-70
2023/05/21 00:57:01;;;;;;;7.43;4.20;;;14.50;99.90;;;;;;5094893;28;20040;-70
2023/05/21 00:59:27;;;;;;;7.87;3.83;;;14.50;99.90;;;;;;5113351;28;20058;-69
2023/05/21 01:01:55;;;;;;;8.50;3.63;;;14.50;99.90;;;;;;5112852;28;20331;-70
2023/05/21 01:04:24;;;;;;;7.30;3.70;;;14.50;99.90;;;;;;5113436;28;20285;-70
2023/05/21 01:06:52;;;;;;;11.20;3.73;;;14.50;99.90;;;;;;5113517;28;20321;-70
2023/05/21 01:09:18;;;;;;;7.73;3.97;;;14.50;99.90;;;;;;5113269;28;20289;-70
2023/05/21 01:11:47;;;;;;;7.50;4.10;;;14.50;99.90;;;;;;5078050;28;20305;-70
2023/05/21 01:14:15;;;;;;;8.00;3.87;;;14.50;99.90;;;;;;5094892;28;20300;-70
2023/05/21 01:16:44;;;;;;;9.60;4.23;;;14.50;99.90;;;;;;5113032;28;20613;-70
2023/05/21 01:19:15;;;;;;;7.30;3.63;;;14.40;99.90;;;;;;5095036;28;20330;-70
2023/05/21 01:21:44;;;;;;;7.73;4.13;;;14.40;99.90;;;;;;5113305;28;20330;-70
2023/05/21 01:24:10;;;;;;;7.80;3.60;;;14.40;99.90;;;;;;5112844;28;20364;-70
2023/05/21 01:26:37;;;;;;;7.23;3.50;;;14.40;99.90;;;;;;5113223;28;20781;-70
2023/05/21 01:29:11;;;;;;;13.00;4.03;;;14.40;99.90;;;;;;5094800;28;20048;-70
2023/05/21 01:31:52;;;;;;;6.63;4.00;;;14.40;99.90;;;;;;5113202;28;20294;-70
2023/05/21 01:34:29;;;;;;;7.60;3.83;;;14.40;99.90;;;;;;5112696;28;20047;-69
2023/05/21 01:37:17;;;;;;;7.90;4.10;;;14.40;99.90;;;;;;5112941;28;20284;-74
2023/05/21 01:39:50;;;;;;;7.33;3.70;;;14.40;99.90;;;;;;5076993;28;20300;-70
2023/05/21 01:42:17;;;;;;;9.43;4.60;;;14.40;99.90;;;;;;5094694;28;20803;-70
2023/05/21 01:44:44;;;;;;;7.37;3.90;;;14.40;99.90;;;;;;5112937;28;20281;-70
2023/05/21 01:47:11;;;;;;;7.40;3.50;;;14.40;99.90;;;;;;5112668;28;20282;-70
2023/05/21 01:49:37;;;;;;;6.63;3.17;;;14.40;99.90;;;;;;5112832;28;20281;-70
2023/05/21 01:52:03;;;;;;;5.90;3.47;;;14.30;99.90;;;;;;5112348;28;20376;-70
2023/05/21 01:54:29;;;;;;;10.23;3.93;;;14.30;99.90;;;;;;5115502;28;20044;-70
2023/05/21 01:56:55;;;;;;;6.90;3.77;;;14.40;99.90;;;;;;5116860;28;20338;-70
2023/05/21 01:59:21;;;;;;;6.40;3.80;;;14.30;99.90;;;;;;5116568;28;20100;-70
2023/05/21 02:01:47;;;;;;;7.73;3.20;;;14.30;99.90;;;;;;5098839;28;20780;-71
2023/05/21 02:04:12;;;;;;;6.07;3.67;;;14.30;99.90;;;;;;5081557;28;20474;-70
2023/05/21 02:06:38;;;;;;;8.73;4.27;;;14.30;99.90;;;;;;5116494;28;20142;-70
2023/05/21 02:09:04;;;;;;;7.57;4.03;;;14.30;99.90;;;;;;5116399;28;20035;-70
2023/05/21 02:11:30;;;;;;;6.40;3.53;;;14.30;99.90;;;;;;5116624;28;20101;-70
2023/05/21 02:13:56;;;;;;;9.10;4.10;;;14.30;99.90;;;;;;5116223;28;20547;-70
2023/05/21 02:16:22;;;;;;;7.63;3.87;;;14.40;99.90;;;;;;5097961;28;20048;-70
2023/05/21 02:18:52;;;;;;;7.97;3.97;;;14.30;99.90;;;;;;5098184;28;20282;-70
2023/05/21 02:21:19;;;;;;;8.23;3.90;;;14.30;99.90;;;;;;5097953;28;20048;-70
2023/05/21 02:23:45;;;;;;;7.87;4.00;;;14.30;99.90;;;;;;5081852;28;20286;-70
2023/05/21 02:26:10;;;;;;;7.30;3.60;;;14.30;99.90;;;;;;5097857;28;20406;-71
2023/05/21 02:28:37;;;;;;;6.70;3.40;;;14.30;99.90;;;;;;5098256;28;20043;-70
2023/05/21 02:31:02;;;;;;;7.27;3.97;;;14.30;99.90;;;;;;5097774;28;20399;-70
2023/05/21 02:33:28;;;;;;;8.03;4.13;;;14.30;99.90;;;;;;5097906;28;20285;-71
2023/05/21 02:35:54;;;;;;;9.20;4.63;;;14.30;99.90;;;;;;5097563;28;20050;-70
2023/05/21 02:38:21;;;;;;;8.97;5.00;;;14.20;99.90;;;;;;5115577;28;20101;-71
2023/05/21 02:40:49;;;;;;;12.07;5.27;;;14.30;99.90;;;;;;5116018;28;20052;-70
2023/05/21 02:43:15;;;;;;;9.97;4.73;;;14.30;99.90;;;;;;5115598;28;20280;-70
2023/05/21 02:45:41;;;;;;;9.50;5.33;;;14.20;99.90;;;;;;5115919;28;20277;-70
2023/05/21 02:48:06;;;;;;;9.87;5.17;;;14.20;99.90;;;;;;5097511;28;20073;-70
2023/05/21 02:50:32;;;;;;;9.90;5.30;;;14.30;99.90;;;;;;5115707;28;20044;-70
2023/05/21 02:53:01;;;;;;;8.87;5.27;;;14.30;99.90;;;;;;5115751;28;20052;-70
2023/05/21 02:55:26;;;;;;;11.87;6.10;;;14.20;99.90;;;;;;5097460;28;20467;-70
2023/05/21 02:57:52;;;;;;;8.33;5.37;;;14.20;99.90;;;;;;5097464;28;20320;-70
2023/05/21 03:00:18;;;;;;;11.83;6.27;;;14.20;99.90;;;;;;5080523;28;20101;-70
2023/05/21 03:02:44;;;;;;;11.87;5.90;;;14.20;99.90;;;;;;5115427;28;20115;-70
2023/05/21 03:05:09;;;;;;;9.70;6.23;;;14.20;99.90;;;;;;5097070;28;20192;-70
2023/05/21 03:07:35;;;;;;;10.70;6.30;;;14.10;99.90;;;;;;5115522;28;20070;-70
2023/05/21 03:10:01;;;;;;;13.60;6.20;;;14.00;99.90;;;;;;5097238;28;20051;-70
2023/05/21 03:12:27;;;;;;;10.03;5.57;;;14.00;99.90;;;;;;5114735;28;20058;-70
2023/05/21 03:14:52;;;;;;;11.10;6.30;;;14.00;99.90;;;;;;5097589;28;20051;-70
2023/05/21 03:17:19;;;;;;;13.83;5.63;;;14.00;99.90;;;;;;5114985;28;20062;-72
2023/05/21 03:19:45;;;;;;;14.37;6.07;;;13.90;99.90;;;;;;5097210;28;20104;-70
2023/05/21 03:22:10;;;;;;;10.93;5.97;;;13.90;99.90;;;;;;5115003;28;20285;-70
2023/05/21 03:24:38;;;;;;;15.93;6.73;;;13.80;99.90;;;;;;5115320;28;20476;-71
2023/05/21 03:27:05;;;;;;;11.03;6.17;;;13.80;99.90;;;;;;5115161;28;20126;-70
2023/05/21 03:29:31;;;;;;;10.63;5.67;;;13.80;99.90;;;;;;5096570;28;20293;-70
2023/05/21 03:31:57;;;;;;;12.17;6.33;;;13.80;99.90;;;;;;5114918;28;20711;-70
2023/05/21 03:34:23;;;;;;;15.77;6.20;;;13.80;99.90;;;;;;5114521;28;20279;-70
2023/05/21 03:36:49;;;;;;;13.27;6.00;;;13.70;99.90;;;;;;5114952;28;20090;-70
2023/05/21 03:39:15;;;;;;;10.50;5.60;;;13.70;99.90;;;;;;5114661;28;20040;-70
2023/05/21 03:41:41;;;;;;;14.40;6.47;;;13.70;99.90;;;;;;5114931;28;20368;-70
2023/05/21 03:44:07;;;;;;;13.17;6.10;;;13.70;99.90;;;;;;5114710;28;20429;-70
2023/05/21 03:46:33;;;;;;;9.93;5.97;;;13.70;99.90;;;;;;5096337;28;20295;-70
2023/05/21 03:48:59;;;;;;;12.73;6.13;;;13.70;99.90;;;;;;5114793;28;20072;-70
2023/05/21 03:51:24;;;;;;;14.00;6.50;;;13.70;99.90;;;;;;5096445;28;20483;-70
2023/05/21 03:53:51;;;;;;;10.67;6.17;;;13.70;99.90;;;;;;5096598;28;20051;-70
2023/05/21 03:56:17;;;;;;;12.20;6.40;;;13.70;99.90;;;;;;5114379;28;20074;-70
2023/05/21 03:58:42;;;;;;;13.10;6.53;;;13.70;99.90;;;;;;5079842;28;20329;-70
2023/05/21 04:01:09;;;;;;;12.17;6.30;;;13.70;99.90;;;;;;5114242;28;20324;-70
2023/05/21 04:03:35;;;;;;;12.73;6.20;;;13.70;99.90;;;;;;5096372;28;20076;-70
2023/05/21 04:06:02;;;;;;;12.60;5.87;;;13.70;99.90;;;;;;5114660;28;20297;-70
2023/05/21 04:08:28;;;;;;;11.77;6.37;;;13.70;99.90;;;;;;5114111;28;20787;-70
2023/05/21 04:10:54;;;;;;;11.13;6.67;;;13.70;99.90;;;;;;5114458;28;20285;-70
2023/05/21 04:13:20;;;;;;;11.73;6.80;;;13.70;99.90;;;;;;5114074;28;20444;-71
2023/05/21 04:15:46;;;;;;;11.73;7.13;;;13.70;99.90;;;;;;5095672;28;20039;-70
2023/05/21 04:18:15;;;;;;;15.40;6.97;;;13.70;99.90;;;;;;5113717;28;20342;-70
2023/05/21 04:20:42;;;;;;;15.83;7.40;;;13.70;99.90;;;;;;5096183;28;20047;-70
2023/05/21 04:23:08;;;;;;;14.63;7.37;;;13.70;99.90;;;;;;5114029;28;20280;-70
2023/05/21 04:25:34;;;;;;;13.47;7.43;;;13.70;99.90;;;;;;5095587;28;20289;-70
2023/05/21 04:27:59;;;;;;;13.37;7.27;;;13.70;99.90;;;;;;5113984;28;20406;-70
2023/05/21 04:30:25;;;;;;;13.77;7.03;;;13.70;99.90;;;;;;5113498;28;20479;-70
2023/05/21 04:32:51;;;;;;;10.10;6.53;;;13.70;99.90;;;;;;5113796;28;20460;-70
2023/05/21 04:35:17;;;;;;;14.20;7.10;;;13.70;99.90;;;;;;5113506;28;20051;-71
2023/05/21 04:37:44;;;;;;;11.37;6.60;;;13.70;99.90;;;;;;5113779;28;20293;-70
2023/05/21 04:40:16;;;;;;;12.60;6.53;;;13.80;99.90;;;;;;5113782;28;20052;-70
2023/05/21 04:42:45;;;;;;;12.10;6.87;;;13.70;99.90;;;;;;5113750;28;20274;-70
2023/05/21 04:45:11;;;;;;;13.17;6.80;;;13.70;99.90;;;;;;5113451;28;20281;-70
2023/05/21 04:47:37;;;;;;;12.93;6.50;;;13.70;99.90;;;;;;5113337;28;20282;-70
2023/05/21 04:50:03;;;;;;;10.27;6.03;;;13.70;99.90;;;;;;5113620;28;20288;-70
2023/05/21 04:52:30;;;;;;;11.27;5.97;;;13.70;99.90;;;;;;5113123;28;20293;-70
2023/05/21 04:54:56;;;;;;;12.63;6.13;;;13.80;99.90;;;;;;5095496;28;20282;-70
2023/05/21 04:57:23;;;;;;;8.43;5.03;;;13.80;99.90;;;;;;5113072;28;20288;-70
2023/05/21 04:59:49;;;;;;;9.23;5.67;;;13.80;99.90;;;;;;5113329;28;20281;-70
2023/05/21 05:02:15;;;;;;;13.23;5.57;;;13.80;99.90;;;;;;5113539;28;20614;-70
2023/05/21 05:04:42;;;;;;;12.33;5.83;;;13.80;99.90;;;;;;5095240;28;20043;-70
2023/05/21 05:07:08;;;;;;;10.57;5.37;;;13.80;99.90;;;;;;5113329;28;20200;-70
2023/05/21 05:09:34;;;;;;;13.40;5.53;;;13.80;99.90;;;;;;5113046;28;20319;-70
2023/05/21 05:12:00;;;;;;;13.03;6.17;;;13.90;99.90;;;;;;5112834;28;20626;-71
2023/05/21 05:14:26;;;;;;;10.17;5.00;;;13.90;99.90;;;;;;5112934;28;20048;-70
2023/05/21 05:16:59;;;;;;;10.83;5.47;;;13.90;99.90;;;;;;5113358;28;20365;-70
2023/05/21 05:19:25;;;;;;;11.70;5.50;;;13.90;99.90;;;;;;5112959;28;20299;-70
2023/05/21 05:21:51;;;;;;;9.50;4.63;;;13.90;99.90;;;;;;5113201;28;20330;-70
2023/05/21 05:24:16;;;;;;;10.70;5.40;;;14.00;99.90;;;;;;5095140;28;20289;-70
2023/05/21 05:26:42;;;;;;;9.07;4.83;;;14.00;99.90;;;;;;5094726;28;20093;-71
2023/05/21 05:29:08;;;;;;;13.20;5.37;;;14.00;99.90;;;;;;5116902;28;20044;-70
2023/05/21 05:31:34;;;;;;;14.27;6.10;;;14.10;99.90;;;;;;5117083;28;20039;-70
2023/05/21 05:33:59;;;;;;;10.37;5.00;;;14.10;99.90;;;;;;5098914;28;20050;-70
2023/05/21 05:36:25;;;;;;;9.87;5.20;;;14.10;99.90;;;;;;5116998;28;20051;-71
2023/05/21 05:38:51;;;;;;;8.37;4.57;;;14.10;99.90;;;;;;5117122;28;20079;-70
2023/05/21 05:41:17;;;;;;;11.47;4.70;;;14.10;99.90;;;;;;5116916;28;20367;-71
2023/05/21 05:43:43;;;;;;;13.73;4.87;;;14.10;99.90;;;;;;5082081;28;20153;-70
2023/05/21 05:46:08;;;;;;;11.07;4.97;;;14.20;99.90;;;;;;5117179;28;20090;-70
2023/05/21 05:48:34;;;;;;;10.70;4.70;;;14.20;99.90;;;;;;5116784;28;20079;-70
2023/05/21 05:51:00;;;;;;;11.97;4.93;;;14.20;99.90;;;;;;5117119;28;20171;-70
2023/05/21 05:53:26;;;;;;;10.00;4.43;;;14.30;99.90;;;;;;5116665;28;20043;-70
2023/05/21 05:55:52;;;;;;;10.07;4.13;;;14.30;99.90;;;;;;5116673;28;20045;-71
2023/05/21 05:58:17;;;;;;;9.37;5.03;;;14.30;99.90;;;;;;5116651;28;20395;-70
2023/05/21 06:00:43;;;;;;;13.50;5.27;;;14.40;99.90;;;;;;5098652;28;20047;-70
2023/05/21 06:03:10;;;;;;;13.47;4.77;;;14.40;99.90;;;;;;5116687;28;20043;-70
2023/05/21 06:05:36;;;;;;;10.90;4.30;;;14.50;99.90;;;;;;5116379;28;20118;-70
2023/05/21 06:08:02;;;;;;;8.37;4.20;;;14.50;99.90;;;;;;5116516;28;20558;-70
2023/05/21 06:10:27;;;;;;;9.77;4.70;;;14.50;99.90;;;;;;5116180;28;20043;-71
2023/05/21 06:12:53;;;;;;;11.20;4.20;;;14.60;99.90;;;;;;5098291;28;20094;-70
2023/05/21 06:15:19;;;;;;;6.90;3.93;;;14.60;99.90;;;;;;5116599;28;20036;-70
2023/05/21 06:17:45;;;;;;;11.50;4.77;;;14.70;99.90;;;;;;5098275;28;20055;-70
2023/05/21 06:20:11;;;;;;;9.60;4.80;;;14.70;99.90;;;;;;5116614;28;20054;-69
2023/05/21 06:22:37;;;;;;;12.73;5.10;;;14.80;99.90;;;;;;5081212;28;20043;-70
2023/05/21 06:25:03;;;;;;;11.23;4.70;;;14.90;99.90;;;;;;5116139;28;20383;-70
2023/05/21 06:27:29;;;;;;;11.53;5.23;;;15.10;99.90;;;;;;5098310;28;20048;-70
2023/05/21 06:29:56;;;;;;;10.33;5.27;;;15.20;99.90;;;;;;5116379;28;20285;-70
2023/05/21 06:32:23;;;;;;;9.03;4.10;;;15.30;99.90;;;;;;5098153;28;20079;-70
2023/05/21 06:34:48;;;;;;;10.20;4.43;;;15.50;99.90;;;;;;5097941;28;20671;-70
2023/05/21 06:37:19;;;;;;;9.90;5.40;;;15.70;99.90;;;;;;5097984;28;20297;-70
2023/05/21 06:39:45;;;;;;;9.63;4.77;;;16.00;99.90;;;;;;5097046;28;20054;-71
2023/05/21 06:42:11;;;;;;;9.60;4.27;;;16.10;99.90;;;;;;5115743;28;20282;-70
2023/05/21 06:44:36;;;;;;;9.80;4.23;;;16.20;99.90;;;;;;5097562;28;20051;-70
2023/05/21 06:47:02;;;;;;;10.97;4.03;;;16.20;99.90;;;;;;5097942;28;20493;-70
2023/05/21 06:49:28;;;;;;;8.53;4.10;;;16.40;99.90;;;;;;5115895;28;20039;-70
2023/05/21 06:51:53;;;;;;;10.77;4.30;;;16.40;99.90;;;;;;5115361;28;20570;-70
2023/05/21 06:54:19;;;;;;;9.10;4.23;;;16.40;99.90;;;;;;5097554;28;20138;-70
2023/05/21 06:56:45;;;;;;;8.03;3.70;;;16.50;99.90;;;;;;5115558;28;20043;-70
2023/05/21 06:59:11;;;;;;;11.23;5.17;;;16.70;99.90;;;;;;5115699;28;20082;-70
2023/05/21 07:01:36;;;;;;;10.07;4.37;;;16.70;99.90;;;;;;5115336;28;20479;-70
2023/05/21 07:04:02;;;;;;;10.53;4.53;;;16.70;99.90;;;;;;5115861;28;20035;-70
2023/05/21 07:06:28;;;;;;;9.97;4.80;;;16.70;99.90;;;;;;5115528;28;20522;-70
2023/05/21 07:08:54;;;;;;;8.90;4.07;;;16.60;99.90;;;;;;5115068;28;20372;-70
2023/05/21 07:11:20;;;;;;;11.23;4.27;;;16.60;99.90;;;;;;5115453;28;20047;-70
2023/05/21 07:13:46;;;;;;;10.27;3.97;;;16.60;99.90;;;;;;5115431;28;20135;-70
2023/05/21 07:16:11;;;;;;;8.77;4.40;;;16.70;99.90;;;;;;5115344;28;20415;-70
2023/05/21 07:18:37;;;;;;;9.47;4.20;;;16.80;99.90;;;;;;5115003;28;20126;-70
2023/05/21 07:21:03;;;;;;;10.83;5.10;;;16.90;99.90;;;;;;5097118;28;20471;-70
2023/05/21 07:23:28;;;;;;;9.47;4.50;;;17.10;99.90;;;;;;5097007;28;20061;-71
2023/05/21 07:25:54;;;;;;;8.50;4.07;;;17.10;99.90;;;;;;5114996;28;20092;-71
2023/05/21 07:28:20;;;;;;;10.70;4.40;;;17.20;99.90;;;;;;5115075;28;20043;-71
2023/05/21 07:30:46;;;;;;;9.00;3.80;;;17.40;99.90;;;;;;5096583;28;20048;-71
2023/05/21 07:33:12;;;;;;;9.03;4.07;;;17.50;99.90;;;;;;5115013;28;20050;-71
2023/05/21 07:35:38;;;;;;;6.60;3.93;;;17.40;99.90;;;;;;5080035;28;20043;-71
2023/05/21 07:38:03;;;;;;;9.27;4.40;;;17.40;99.90;;;;;;5114833;28;20536;-71
2023/05/21 07:40:29;;;;;;;8.00;4.47;;;17.30;99.90;;;;;;5115200;28;20380;-72
2023/05/21 07:42:55;;;;;;;9.53;4.83;;;17.50;99.90;;;;;;5096686;28;20085;-72
2023/05/21 07:45:21;;;;;;;7.83;3.87;;;17.90;99.90;;;;;;5097066;28;20051;-72
2023/05/21 07:47:46;;;;;;;10.57;4.27;;;18.40;99.90;;;;;;5114488;28;20101;-72
2023/05/21 07:50:13;;;;;;;7.90;4.47;;;18.50;99.90;;;;;;5113927;28;20479;-73
2023/05/21 07:52:39;;;;;;;8.57;4.07;;;18.50;99.90;;;;;;5078029;28;20499;-72
2023/05/21 07:55:06;;;;;;;7.87;4.40;;;18.20;99.90;;;;;;5096126;28;20074;-73
2023/05/21 07:57:32;;;;;;;9.70;4.23;;;18.00;99.90;;;;;;5113882;28;20456;-72
2023/05/21 07:59:57;;;;;;;11.77;5.07;;;17.70;99.90;;;;;;5121375;27;20051;-72
2023/05/21 08:02:23;;;;;;;9.53;4.47;;;17.60;99.90;;;;;;5113910;28;20089;-73
2023/05/21 08:04:49;;;;;;;9.40;4.33;;;17.50;99.90;;;;;;5095558;28;20126;-72
2023/05/21 08:07:18;;;;;;;6.70;3.83;;;17.50;99.90;;;;;;5095675;28;20058;-73
2023/05/21 08:09:44;;;;;;;7.77;4.40;;;17.40;99.90;;;;;;5113695;28;20046;-72
2023/05/21 08:12:14;;;;;;;7.13;4.20;;;17.50;99.90;;;;;;5113621;28;20054;-72
2023/05/21 08:14:40;;;;;;;6.43;3.63;;;17.70;99.90;;;;;;5110745;28;20036;-73
2023/05/21 08:17:08;;;;;;;7.63;4.53;;;17.80;99.90;;;;;;5095675;28;20039;-73
2023/05/21 08:19:34;;;;;;;7.17;3.63;;;17.70;99.90;;;;;;5095526;28;20051;-72
2023/05/21 08:22:00;;;;;;;8.57;4.13;;;17.80;99.90;;;;;;5110202;28;20559;-73
2023/05/21 08:24:26;;;;;;;9.03;3.90;;;17.80;99.90;;;;;;5113727;28;20112;-72
2023/05/21 08:26:52;;;;;;;9.13;4.30;;;18.00;99.90;;;;;;5113159;28;20039;-73
2023/05/21 08:29:17;;;;;;;8.93;3.70;;;18.30;99.90;;;;;;5113662;28;20091;-72
2023/05/21 08:31:43;;;;;;;9.47;3.70;;;18.40;99.90;;;;;;5113177;28;20547;-72
2023/05/21 08:34:09;;;;;;;11.57;4.00;;;18.50;99.90;;;;;;5113277;28;20052;-72
2023/05/21 08:36:35;;;;;;;9.37;3.87;;;18.40;99.90;;;;;;5113249;28;20399;-72
2023/05/21 08:39:01;;;;;;;7.60;3.80;;;18.50;99.90;;;;;;5094999;28;20047;-71
2023/05/21 08:41:29;;;;;;;9.93;4.33;;;18.50;99.90;;;;;;5112702;28;20051;-71
2023/05/21 08:43:59;;;;;;;6.87;3.77;;;18.60;99.90;;;;;;5113415;28;20052;-72
2023/05/21 08:46:26;;;;;;;8.43;4.20;;;18.50;99.90;;;;;;5113784;28;20424;-72
2023/05/21 08:48:53;;;;;;;8.57;4.27;;;18.40;99.90;;;;;;5095455;28;20482;-72
2023/05/21 08:51:20;;;;;;;8.43;3.27;;;18.40;99.90;;;;;;5095414;28;20065;-72
2023/05/21 08:53:48;;;;;;;7.30;3.83;;;18.30;99.90;;;;;;5095105;28;20130;-70
2023/05/21 08:56:18;;;;;;;7.33;2.90;;;18.40;99.90;;;;;;5113452;28;20054;-70
2023/05/21 08:58:48;;;;;;;8.23;3.80;;;18.50;99.90;;;;;;5113248;28;20051;-76
2023/05/21 09:01:13;;;;;;;7.00;3.47;;;18.70;99.90;;;;;;5113435;28;20043;-70
2023/05/21 09:03:40;;;;;;;6.87;3.27;;;18.70;99.90;;;;;;5094834;28;20047;-70
2023/05/21 09:06:15;;;;;;;7.17;3.33;;;18.80;99.90;;;;;;5112835;28;20536;-70
2023/05/21 09:08:47;;;;;;;8.45;3.47;;;18.80;99.90;;;;;;5113286;28;20130;-69
2023/05/21 09:11:13;;;;;;;6.97;3.80;;;18.90;99.90;;;;;;5095280;28;20122;-70
2023/05/21 09:13:43;;;;;;;6.10;3.00;;;18.70;99.90;;;;;;5094960;28;20505;-69
2023/05/21 09:16:09;;;;;;;9.87;4.10;;;18.50;99.90;;;;;;5128960;27;20087;-70
2023/05/21 09:18:35;;;;;;;9.13;3.03;;;18.50;99.90;;;;;;5113324;28;20083;-69
2023/05/21 09:21:30;;;;;;;9.37;3.27;;;18.40;99.90;;;;;;5112906;28;20394;-70
2023/05/21 09:23:57;;;;;;;8.40;3.47;;;18.40;99.90;;;;;;5112893;28;20051;-70
2023/05/21 09:26:23;;;;;;;7.17;3.47;;;18.40;99.90;;;;;;5113000;28;20356;-71
2023/05/21 09:28:51;;;;;;;7.27;3.40;;;18.40;99.90;;;;;;5094671;28;20101;-71
2023/05/21 09:31:16;;;;;;;6.30;3.40;;;18.40;99.90;;;;;;5113399;28;20163;-69
2023/05/21 09:33:48;;;;;;;7.83;3.53;;;18.50;99.90;;;;;;5094386;28;20044;-70
2023/05/21 09:36:18;;;;;;;6.57;3.27;;;18.60;99.90;;;;;;5113030;28;20050;-70
2023/05/21 09:38:45;;;;;;;7.90;3.10;;;18.60;99.90;;;;;;5112917;28;20044;-72
2023/05/21 09:41:11;;;;;;;7.80;3.40;;;18.70;99.90;;;;;;5112686;28;20491;-69
2023/05/21 09:43:36;;;;;;;9.87;3.67;;;18.70;99.90;;;;;;5113047;28;20036;-69
2023/05/21 09:46:02;;;;;;;9.37;3.33;;;18.60;99.90;;;;;;5112448;28;20104;-69
2023/05/21 09:48:40;;;;;;;7.47;3.30;;;18.50;99.90;;;;;;5112968;28;20048;-69
2023/05/21 09:51:12;;;;;;;5.30;2.87;;;18.30;99.90;;;;;;5094536;28;20406;-71
2023/05/21 09:53:53;;;;;;;8.13;4.00;;;18.40;99.90;;;;;;5112735;28;20054;-71
2023/05/21 09:56:30;;;;;;;6.37;3.30;;;18.50;99.90;;;;;;5078135;28;20091;-71
2023/05/21 09:59:03;;;;;;;8.83;3.43;;;18.60;99.90;;;;;;5112544;28;20054;-72
2023/05/21 10:01:30;;;;;;;7.47;3.10;;;18.60;99.90;;;;;;5094784;28;20057;-72
2023/05/21 10:03:58;;;;;;;7.53;3.77;;;18.60;99.90;;;;;;5112412;28;20075;-72
2023/05/21 10:06:28;;;;;;;8.63;3.30;;;18.60;99.90;;;;;;5094856;28;20449;-72
2023/05/21 10:08:56;;;;;;;8.63;3.60;;;18.70;99.90;;;;;;5094299;28;20391;-72
2023/05/21 10:11:25;;;;;;;6.07;3.30;;;18.70;99.90;;;;;;5112812;28;20047;-71
2023/05/21 10:13:56;;;;;;;11.00;4.47;;;18.60;99.90;;;;;;5112452;28;20103;-71
2023/05/21 10:16:23;;;;;;;7.90;3.83;;;18.70;99.90;;;;;;5098525;28;20066;-71
2023/05/21 10:18:49;;;;;;;8.73;3.63;;;18.70;99.90;;;;;;5116309;28;20051;-71
2023/05/21 10:21:15;;;;;;;8.77;3.13;;;18.60;99.90;;;;;;5115842;28;20047;-71
2023/05/21 10:23:42;;;;;;;9.33;4.00;;;18.60;99.90;;;;;;5081463;28;20043;-71
2023/05/21 10:26:09;;;;;;;9.57;3.37;;;18.50;99.90;;;;;;5098035;28;20438;-71
2023/05/21 10:28:35;;;;;;;8.60;3.50;;;18.50;99.90;;;;;;5116188;28;20059;-71
2023/05/21 10:31:03;;;;;;;7.80;3.50;;;18.50;99.90;;;;;;5097717;28;20069;-72
2023/05/21 10:33:28;;;;;;;8.03;3.33;;;18.60;99.90;;;;;;5080941;28;20046;-70
2023/05/21 10:35:57;;;;;;;8.40;3.50;;;18.60;99.90;;;;;;5116292;28;20044;-71
2023/05/21 10:38:24;;;;;;;10.30;3.97;;;18.60;99.90;;;;;;5098059;28;20047;-71
2023/05/21 10:40:52;;;;;;;9.57;3.87;;;18.50;99.90;;;;;;5116088;28;20136;-70
2023/05/21 10:43:48;;;;;;;9.97;3.37;;;18.50;99.90;;;;;;5115622;28;20551;-71
2023/05/21 10:46:58;;;;;;;8.93;3.80;;;18.50;99.90;;;;;;5115872;28;20139;-71
2023/05/21 10:49:42;;;;;;;6.77;3.37;;;18.60;99.90;;;;;;5076599;28;20051;-71
2023/05/21 10:52:14;;;;;;;8.40;4.27;;;18.60;99.90;;;;;;5115249;28;20050;-71
2023/05/21 10:55:06;;;;;;;8.60;3.90;;;18.70;99.90;;;;;;5097885;28;20080;-70
2023/05/21 10:58:05;;;;;;;7.53;3.80;;;18.80;99.90;;;;;;5110840;28;20500;-69
2023/05/21 11:00:32;;;;;;;6.67;3.30;;;18.70;99.90;;;;;;5115611;28;20051;-70
2023/05/21 11:02:59;;;;;;;9.57;3.27;;;18.70;99.90;;;;;;5115840;28;20043;-70
2023/05/21 11:05:50;;;;;;;9.27;3.33;;;18.60;99.90;;;;;;5115712;28;20048;-70
2023/05/21 11:08:25;;;;;;;8.20;3.70;;;18.70;99.90;;;;;;5097146;28;20467;-70
2023/05/21 11:10:56;;;;;;;8.20;3.63;;;18.70;99.90;;;;;;5115417;28;20126;-70
2023/05/21 11:13:23;;;;;;;9.47;3.30;;;18.60;99.90;;;;;;5114876;28;20059;-70
2023/05/21 11:15:58;;;;;;;7.37;3.30;;;18.70;99.90;;;;;;5097580;28;20065;-70
2023/05/21 11:18:33;;;;;;;6.70;3.30;;;18.70;99.90;;;;;;5115153;28;20089;-70
2023/05/21 11:21:12;;;;;;;9.05;3.85;;;18.80;99.90;;;;;;5115078;28;20062;-70
2023/05/21 11:23:51;;;;;;;9.60;3.53;;;18.80;99.90;;;;;;5115377;28;20083;-70
2023/05/21 11:26:25;;;;;;;5.67;2.90;;;18.70;99.90;;;;;;5114608;28;20509;-70
2023/05/21 11:29:09;;;;;;;6.88;3.17;;;18.70;99.90;;;;;;5115262;28;20483;-70
2023/05/21 11:31:38;;;;;;;7.18;3.08;;;18.80;99.90;;;;;;5114849;28;20038;-70
2023/05/21 11:34:28;;;;;;;7.10;2.80;;;18.80;99.90;;;;;;5115079;28;20053;-70
2023/05/21 11:37:22;;;;;;;7.33;3.30;;;18.90;99.90;;;;;;5097150;28;20126;-70
2023/05/21 11:39:49;;;;;;;7.53;3.13;;;19.00;99.90;;;;;;5114918;28;20056;-70
2023/05/21 11:42:38;;;;;;;7.53;3.10;;;19.10;99.90;;;;;;5114480;28;20674;-70
2023/05/21 11:45:04;;;;;;;7.53;2.73;;;19.00;99.90;;;;;;5096833;28;20070;-74
2023/05/21 11:47:31;;;;;;;9.17;3.30;;;18.90;99.90;;;;;;5114980;28;20075;-71
2023/05/21 11:50:00;;;;;;;9.43;3.57;;;18.90;99.90;;;;;;5096737;28;20055;-71
2023/05/21 11:52:29;;;;;;;7.10;3.37;;;19.00;99.90;;;;;;5114173;28;20449;-73
2023/05/21 11:54:56;;;;;;;8.77;2.93;;;19.00;99.90;;;;;;5114701;28;20047;-72
2023/05/21 11:57:27;;;;;;;8.70;3.90;;;19.00;99.90;;;;;;5114372;28;20047;-75
2023/05/21 11:59:53;;;;;;;7.87;3.30;;;19.10;99.90;;;;;;5079717;28;20054;-73
2023/05/21 12:02:21;;;;;;;7.93;3.70;;;19.10;99.90;;;;;;5114242;28;20054;-72
2023/05/21 12:04:49;;;;;;;8.77;3.47;;;19.00;99.90;;;;;;5113450;28;20052;-72
2023/05/21 12:07:21;;;;;;;7.87;3.43;;;19.00;99.90;;;;;;5113595;28;20043;-72
2023/05/21 12:09:48;;;;;;;8.07;3.13;;;19.00;99.90;;;;;;5063063;28;20044;-72
2023/05/21 12:12:20;;;;;;;9.97;3.50;;;18.90;99.90;;;;;;5113949;28;20059;-72
2023/05/21 12:14:50;;;;;;;6.50;3.60;;;18.80;99.90;;;;;;5114439;28;20051;-72
2023/05/21 12:17:21;;;;;;;9.03;3.60;;;18.90;99.90;;;;;;5096400;28;20054;-72
2023/05/21 12:19:49;;;;;;;6.37;3.70;;;19.00;99.90;;;;;;5114490;28;20170;-72
2023/05/21 12:22:15;;;;;;;6.93;3.80;;;18.90;99.90;;;;;;5114247;28;20093;-72
2023/05/21 12:24:44;;;;;;;8.23;3.80;;;18.90;99.90;;;;;;5114476;28;20079;-72
2023/05/21 12:27:12;;;;;;;10.13;4.47;;;19.00;99.90;;;;;;5114028;28;20092;-72
2023/05/21 12:29:42;;;;;;;8.93;4.20;;;19.00;99.90;;;;;;5114055;28;20054;-72
2023/05/21 12:32:09;;;;;;;7.07;3.80;;;19.10;99.90;;;;;;5095639;28;20042;-72
2023/05/21 12:34:47;;;;;;;7.90;4.67;;;19.10;99.90;;;;;;5114237;28;20043;-72
2023/05/21 12:37:30;;;;;;;8.00;4.67;;;19.20;99.90;;;;;;5095592;28;20433;-72
2023/05/21 12:39:58;;;;;;;11.23;5.10;;;19.20;99.90;;;;;;5114059;28;20043;-72
2023/05/21 12:42:34;;;;;;;10.87;4.33;;;19.20;99.90;;;;;;5113673;28;20047;-72
2023/05/21 12:45:05;;;;;;;8.37;4.83;;;19.20;99.90;;;;;;5114289;28;20052;-72
2023/05/21 12:47:32;;;;;;;9.27;4.03;;;19.20;99.90;;;;;;5095882;28;20047;-72